DLH99 EDDF-EKCH
Flight info
| Callsign | DLH99 |
|---|---|
| Flight time | 1h 7m |
| Altitude | 41000 |
| Route | MARUN7F/25C MARUN Y150 TOLGI DCT SAS DCT MAKEL N851 GESKA Z711 MONAK |
| Aircraft | A359/H-SDE2E3GHIJ3J4J5LM1ORWXY/LB1D1 |
Departure
| Time | 2026-05-04 18:07 |
|---|---|
| Airport | Frankfurt Main Airport (EDDF) |
Arrival
| Time | 2026-05-04 19:15 |
|---|---|
| Airport | Copenhagen Kastrup Airport (EKCH) |
| Time | Latitude | Longitude | Altitude | Speed | Heading |
|---|---|---|---|---|---|
| 2026-05-04 17:40 | 50.04752 | 8.57123 | 362 ft | 0 kts | 120° |
| 2026-05-04 17:55 | 50.04761 | 8.57099 | 365 ft | 3 kts | 120° |
| 2026-05-04 17:55 | 50.04774 | 8.57076 | 367 ft | 3 kts | 149° |
| 2026-05-04 17:55 | 50.04790 | 8.57061 | 364 ft | 3 kts | 154° |
| 2026-05-04 17:55 | 50.04809 | 8.57052 | 366 ft | 3 kts | 180° |
| 2026-05-04 17:56 | 50.04819 | 8.57053 | 368 ft | 0 kts | 202° |
| 2026-05-04 17:59 | 50.04711 | 8.56977 | 366 ft | 13 kts | 204° |
| 2026-05-04 18:00 | 50.04630 | 8.56923 | 362 ft | 14 kts | 199° |
| 2026-05-04 18:00 | 50.04534 | 8.56887 | 369 ft | 14 kts | 193° |
| 2026-05-04 18:00 | 50.04428 | 8.56854 | 371 ft | 17 kts | 189° |
| 2026-05-04 18:00 | 50.04352 | 8.56833 | 371 ft | 0 kts | 189° |
| 2026-05-04 18:01 | 50.04307 | 8.56837 | 370 ft | 9 kts | 162° |
| 2026-05-04 18:01 | 50.04284 | 8.56925 | 372 ft | 11 kts | 80° |
| 2026-05-04 18:01 | 50.04312 | 8.57046 | 371 ft | 13 kts | 70° |
| 2026-05-04 18:02 | 50.04384 | 8.57346 | 375 ft | 17 kts | 69° |
| 2026-05-04 18:02 | 50.04430 | 8.57536 | 373 ft | 20 kts | 69° |
| 2026-05-04 18:02 | 50.04479 | 8.57737 | 376 ft | 21 kts | 69° |
| 2026-05-04 18:02 | 50.04532 | 8.57960 | 376 ft | 22 kts | 70° |
| 2026-05-04 18:03 | 50.04587 | 8.58193 | 377 ft | 23 kts | 69° |
| 2026-05-04 18:03 | 50.04639 | 8.58408 | 375 ft | 11 kts | 69° |
| 2026-05-04 18:03 | 50.04650 | 8.58525 | 375 ft | 12 kts | 108° |
| 2026-05-04 18:03 | 50.04581 | 8.58598 | 376 ft | 13 kts | 157° |
| 2026-05-04 18:04 | 50.04505 | 8.58621 | 377 ft | 10 kts | 203° |
| 2026-05-04 18:04 | 50.04476 | 8.58549 | 376 ft | 0 kts | 250° |
| 2026-05-04 18:06 | 50.04448 | 8.58437 | 376 ft | 35 kts | 249° |
| 2026-05-04 18:07 | 50.04269 | 8.57690 | 370 ft | 110 kts | 250° |
| 2026-05-04 18:07 | 50.03933 | 8.56250 | 366 ft | 172 kts | 252° |
| 2026-05-04 18:07 | 50.03496 | 8.54434 | 1017 ft | 178 kts | 251° |
| 2026-05-04 18:07 | 50.03055 | 8.52651 | 1945 ft | 175 kts | 251° |
| 2026-05-04 18:08 | 50.02716 | 8.50765 | 2330 ft | 191 kts | 266° |
| 2026-05-04 18:08 | 50.02772 | 8.48607 | 2607 ft | 210 kts | 278° |
| 2026-05-04 18:08 | 50.02969 | 8.46274 | 3082 ft | 223 kts | 278° |
| 2026-05-04 18:08 | 50.03208 | 8.43858 | 3686 ft | 229 kts | 282° |
| 2026-05-04 18:09 | 50.05140 | 8.39792 | 4593 ft | 257 kts | 321° |
| 2026-05-04 18:09 | 50.08141 | 8.36339 | 5657 ft | 275 kts | 322° |
| 2026-05-04 18:10 | 50.09695 | 8.34554 | 6301 ft | 280 kts | 322° |
| 2026-05-04 18:10 | 50.11456 | 8.33192 | 6898 ft | 287 kts | 344° |
| 2026-05-04 18:10 | 50.13455 | 8.33095 | 7542 ft | 293 kts | 10° |
| 2026-05-04 18:10 | 50.15440 | 8.33913 | 8189 ft | 297 kts | 17° |
| 2026-05-04 18:11 | 50.17426 | 8.34889 | 8843 ft | 302 kts | 17° |
| 2026-05-04 18:11 | 50.19444 | 8.35880 | 9532 ft | 305 kts | 16° |
| 2026-05-04 18:11 | 50.21486 | 8.36869 | 10167 ft | 311 kts | 16° |
| 2026-05-04 18:11 | 50.23602 | 8.37883 | 10486 ft | 326 kts | 16° |
| 2026-05-04 18:12 | 50.25827 | 8.38943 | 10744 ft | 342 kts | 16° |
| 2026-05-04 18:12 | 50.28117 | 8.40031 | 11049 ft | 355 kts | 16° |
| 2026-05-04 18:12 | 50.30497 | 8.41179 | 11542 ft | 361 kts | 17° |
| 2026-05-04 18:12 | 50.32830 | 8.42704 | 12079 ft | 365 kts | 26° |
| 2026-05-04 18:13 | 50.35098 | 8.44541 | 12681 ft | 368 kts | 28° |
| 2026-05-04 18:13 | 50.37332 | 8.46496 | 13292 ft | 369 kts | 30° |
| 2026-05-04 18:13 | 50.41781 | 8.50631 | 14328 ft | 375 kts | 31° |
| 2026-05-04 18:14 | 50.44026 | 8.52760 | 14789 ft | 379 kts | 31° |
| 2026-05-04 18:14 | 50.46287 | 8.54906 | 15258 ft | 382 kts | 31° |
| 2026-05-04 18:14 | 50.48573 | 8.57069 | 15761 ft | 385 kts | 31° |
| 2026-05-04 18:15 | 50.53251 | 8.61481 | 16354 ft | 401 kts | 30° |
| 2026-05-04 18:15 | 50.58094 | 8.66043 | 17151 ft | 410 kts | 30° |
| 2026-05-04 18:15 | 50.60550 | 8.68360 | 17578 ft | 413 kts | 30° |
| 2026-05-04 18:16 | 50.63020 | 8.70694 | 17999 ft | 416 kts | 30° |
| 2026-05-04 18:16 | 50.65510 | 8.73050 | 18407 ft | 419 kts | 30° |
| 2026-05-04 18:16 | 50.68009 | 8.75418 | 18781 ft | 421 kts | 30° |
| 2026-05-04 18:17 | 50.73062 | 8.80216 | 19526 ft | 426 kts | 30° |
| 2026-05-04 18:17 | 50.75606 | 8.82635 | 19888 ft | 428 kts | 30° |
| 2026-05-04 18:17 | 50.80737 | 8.87525 | 20646 ft | 433 kts | 30° |
| 2026-05-04 18:18 | 50.83325 | 8.89996 | 21012 ft | 436 kts | 30° |
| 2026-05-04 18:18 | 50.85927 | 8.92484 | 21364 ft | 438 kts | 30° |
| 2026-05-04 18:18 | 50.88541 | 8.94987 | 21733 ft | 441 kts | 30° |
| 2026-05-04 18:18 | 50.91171 | 8.97507 | 22084 ft | 443 kts | 30° |
| 2026-05-04 18:19 | 50.96566 | 9.02322 | 22735 ft | 447 kts | 25° |
| 2026-05-04 18:19 | 50.99369 | 9.04480 | 23065 ft | 449 kts | 24° |
| 2026-05-04 18:19 | 51.02208 | 9.06593 | 23408 ft | 452 kts | 23° |
| 2026-05-04 18:20 | 51.05030 | 9.08653 | 23702 ft | 454 kts | 23° |
| 2026-05-04 18:20 | 51.07910 | 9.10741 | 23966 ft | 456 kts | 22° |
| 2026-05-04 18:20 | 51.10805 | 9.12839 | 24257 ft | 458 kts | 22° |
| 2026-05-04 18:20 | 51.13714 | 9.14954 | 24529 ft | 461 kts | 22° |
| 2026-05-04 18:21 | 51.16639 | 9.17087 | 24823 ft | 463 kts | 22° |
| 2026-05-04 18:21 | 51.19574 | 9.19236 | 25096 ft | 465 kts | 22° |
| 2026-05-04 18:21 | 51.22521 | 9.21397 | 25420 ft | 467 kts | 22° |
| 2026-05-04 18:21 | 51.25477 | 9.23570 | 25727 ft | 469 kts | 22° |
| 2026-05-04 18:22 | 51.28444 | 9.25755 | 25859 ft | 470 kts | 22° |
| 2026-05-04 18:22 | 51.31420 | 9.27949 | 25975 ft | 471 kts | 22° |
| 2026-05-04 18:22 | 51.34389 | 9.30142 | 26423 ft | 469 kts | 22° |
| 2026-05-04 18:22 | 51.37347 | 9.32331 | 27018 ft | 466 kts | 22° |
| 2026-05-04 18:23 | 51.40280 | 9.34504 | 27598 ft | 464 kts | 22° |
| 2026-05-04 18:23 | 51.43199 | 9.36670 | 28220 ft | 461 kts | 22° |
| 2026-05-04 18:23 | 51.46107 | 9.38830 | 28870 ft | 459 kts | 22° |
| 2026-05-04 18:23 | 51.48998 | 9.40981 | 29507 ft | 457 kts | 21° |
| 2026-05-04 18:24 | 51.51880 | 9.43128 | 30159 ft | 455 kts | 21° |
| 2026-05-04 18:24 | 51.54744 | 9.45264 | 30708 ft | 453 kts | 21° |
| 2026-05-04 18:24 | 51.57596 | 9.47395 | 31265 ft | 451 kts | 21° |
| 2026-05-04 18:24 | 51.60426 | 9.49512 | 31860 ft | 448 kts | 21° |
| 2026-05-04 18:25 | 51.63241 | 9.51621 | 32452 ft | 444 kts | 21° |
| 2026-05-04 18:25 | 51.66027 | 9.53711 | 33083 ft | 440 kts | 21° |
| 2026-05-04 18:25 | 51.68792 | 9.55788 | 33707 ft | 436 kts | 21° |
| 2026-05-04 18:25 | 51.71522 | 9.57841 | 34280 ft | 430 kts | 21° |
| 2026-05-04 18:26 | 51.74221 | 9.59875 | 34766 ft | 427 kts | 21° |
| 2026-05-04 18:26 | 51.76925 | 9.61911 | 34954 ft | 431 kts | 21° |
| 2026-05-04 18:26 | 51.82473 | 9.66088 | 34978 ft | 450 kts | 22° |
| 2026-05-04 18:27 | 51.88234 | 9.70444 | 35222 ft | 463 kts | 22° |
| 2026-05-04 18:27 | 51.91163 | 9.72668 | 35403 ft | 468 kts | 22° |
| 2026-05-04 18:27 | 51.94103 | 9.74907 | 35838 ft | 465 kts | 22° |
| 2026-05-04 18:28 | 51.97004 | 9.77122 | 36416 ft | 458 kts | 22° |
| 2026-05-04 18:28 | 51.99864 | 9.79310 | 37061 ft | 450 kts | 22° |
| 2026-05-04 18:28 | 52.02668 | 9.81457 | 37667 ft | 443 kts | 22° |
| 2026-05-04 18:28 | 52.05456 | 9.83590 | 37946 ft | 444 kts | 22° |
| 2026-05-04 18:29 | 52.11125 | 9.87924 | 37987 ft | 457 kts | 22° |
| 2026-05-04 18:29 | 52.16964 | 9.92401 | 37969 ft | 471 kts | 22° |
| 2026-05-04 18:30 | 52.22979 | 9.97034 | 37970 ft | 485 kts | 23° |
| 2026-05-04 18:30 | 52.26049 | 9.99406 | 37968 ft | 492 kts | 23° |
| 2026-05-04 18:31 | 52.32330 | 10.04270 | 37964 ft | 505 kts | 23° |
| 2026-05-04 18:31 | 52.38734 | 10.09247 | 37960 ft | 510 kts | 23° |
| 2026-05-04 18:32 | 52.45091 | 10.14206 | 37961 ft | 509 kts | 23° |
| 2026-05-04 18:32 | 52.51488 | 10.19209 | 37962 ft | 509 kts | 23° |
| 2026-05-04 18:33 | 52.57879 | 10.24222 | 37976 ft | 509 kts | 22° |
| 2026-05-04 18:33 | 52.64280 | 10.29258 | 37959 ft | 510 kts | 22° |
| 2026-05-04 18:34 | 52.70681 | 10.34311 | 37941 ft | 510 kts | 23° |
| 2026-05-04 18:34 | 52.77075 | 10.39375 | 37941 ft | 510 kts | 23° |
| 2026-05-04 18:35 | 52.83476 | 10.44461 | 37942 ft | 510 kts | 22° |
| 2026-05-04 18:35 | 52.89874 | 10.49562 | 37943 ft | 510 kts | 23° |
| 2026-05-04 18:36 | 52.96271 | 10.54679 | 37941 ft | 511 kts | 23° |
| 2026-05-04 18:36 | 53.02663 | 10.59809 | 37946 ft | 511 kts | 23° |
| 2026-05-04 18:37 | 53.09016 | 10.64925 | 37948 ft | 511 kts | 23° |
| 2026-05-04 18:37 | 53.15406 | 10.70086 | 37947 ft | 511 kts | 23° |
| 2026-05-04 18:38 | 53.21796 | 10.75265 | 37947 ft | 511 kts | 23° |
| 2026-05-04 18:38 | 53.28186 | 10.80462 | 37951 ft | 510 kts | 23° |
| 2026-05-04 18:39 | 53.34555 | 10.85660 | 37953 ft | 510 kts | 23° |
| 2026-05-04 18:39 | 53.40929 | 10.90878 | 37958 ft | 510 kts | 23° |
| 2026-05-04 18:40 | 53.47306 | 10.96115 | 37903 ft | 511 kts | 23° |
| 2026-05-04 18:40 | 53.50492 | 10.98740 | 37523 ft | 510 kts | 22° |
| 2026-05-04 18:40 | 53.53675 | 11.01366 | 36907 ft | 510 kts | 22° |
| 2026-05-04 18:40 | 53.56859 | 11.03998 | 36306 ft | 510 kts | 22° |
| 2026-05-04 18:41 | 53.60042 | 11.06632 | 35720 ft | 510 kts | 22° |
| 2026-05-04 18:41 | 53.63230 | 11.09275 | 35151 ft | 512 kts | 21° |
| 2026-05-04 18:41 | 53.66429 | 11.11931 | 34593 ft | 513 kts | 21° |
| 2026-05-04 18:41 | 53.69638 | 11.14600 | 34034 ft | 514 kts | 21° |
| 2026-05-04 18:42 | 53.72847 | 11.17272 | 33448 ft | 516 kts | 21° |
| 2026-05-04 18:42 | 53.76073 | 11.19963 | 32822 ft | 517 kts | 21° |
| 2026-05-04 18:42 | 53.79300 | 11.22659 | 32213 ft | 518 kts | 21° |
| 2026-05-04 18:42 | 53.82531 | 11.25364 | 31622 ft | 518 kts | 21° |
| 2026-05-04 18:43 | 53.85750 | 11.28067 | 31041 ft | 515 kts | 21° |
| 2026-05-04 18:43 | 53.88959 | 11.30767 | 30463 ft | 513 kts | 22° |
| 2026-05-04 18:43 | 53.92107 | 11.33419 | 29891 ft | 512 kts | 22° |
| 2026-05-04 18:43 | 53.95290 | 11.36105 | 29234 ft | 509 kts | 22° |
| 2026-05-04 18:44 | 53.98448 | 11.38776 | 28620 ft | 505 kts | 21° |
| 2026-05-04 18:44 | 53.99509 | 11.39675 | 28412 ft | 503 kts | 21° |
| 2026-05-04 18:44 | 54.04653 | 11.44043 | 27981 ft | 493 kts | 21° |
| 2026-05-04 18:44 | 54.07722 | 11.46648 | 27980 ft | 493 kts | 21° |
| 2026-05-04 18:45 | 54.10790 | 11.49253 | 27967 ft | 493 kts | 21° |
| 2026-05-04 18:45 | 54.13855 | 11.51861 | 27928 ft | 489 kts | 21° |
| 2026-05-04 18:45 | 54.16855 | 11.54426 | 27684 ft | 477 kts | 21° |
| 2026-05-04 18:45 | 54.19781 | 11.56937 | 27470 ft | 465 kts | 21° |
| 2026-05-04 18:46 | 54.22652 | 11.59404 | 26978 ft | 460 kts | 20° |
| 2026-05-04 18:46 | 54.25534 | 11.61868 | 26046 ft | 467 kts | 20° |
| 2026-05-04 18:46 | 54.28453 | 11.64361 | 25336 ft | 468 kts | 20° |
| 2026-05-04 18:46 | 54.31348 | 11.66845 | 24780 ft | 465 kts | 21° |
| 2026-05-04 18:47 | 54.34225 | 11.69324 | 24248 ft | 461 kts | 21° |
| 2026-05-04 18:47 | 54.37072 | 11.71785 | 23727 ft | 456 kts | 21° |
| 2026-05-04 18:47 | 54.38943 | 11.73404 | 23350 ft | 453 kts | 21° |
| 2026-05-04 18:47 | 54.42690 | 11.76648 | 22508 ft | 448 kts | 21° |
| 2026-05-04 18:48 | 54.44523 | 11.78236 | 22184 ft | 444 kts | 21° |
| 2026-05-04 18:48 | 54.47264 | 11.80614 | 21648 ft | 438 kts | 22° |
| 2026-05-04 18:48 | 54.49975 | 11.82969 | 21045 ft | 435 kts | 22° |
| 2026-05-04 18:48 | 54.52667 | 11.85309 | 20472 ft | 432 kts | 22° |
| 2026-05-04 18:49 | 54.55341 | 11.87637 | 19896 ft | 429 kts | 22° |
| 2026-05-04 18:49 | 54.57991 | 11.89948 | 19319 ft | 426 kts | 23° |
| 2026-05-04 18:49 | 54.60613 | 11.92276 | 18766 ft | 422 kts | 25° |
| 2026-05-04 18:49 | 54.63096 | 11.94965 | 18211 ft | 420 kts | 30° |
| 2026-05-04 18:50 | 54.65537 | 11.97675 | 17591 ft | 415 kts | 29° |
| 2026-05-04 18:50 | 54.67952 | 12.00366 | 17009 ft | 411 kts | 30° |
| 2026-05-04 18:50 | 54.70338 | 12.03062 | 16414 ft | 407 kts | 30° |
| 2026-05-04 18:50 | 54.72690 | 12.05745 | 15831 ft | 404 kts | 30° |
| 2026-05-04 18:51 | 54.75023 | 12.08425 | 15261 ft | 401 kts | 30° |
| 2026-05-04 18:51 | 54.77331 | 12.11086 | 14680 ft | 397 kts | 30° |
| 2026-05-04 18:51 | 54.79623 | 12.13737 | 14130 ft | 394 kts | 30° |
| 2026-05-04 18:51 | 54.81894 | 12.16370 | 13564 ft | 391 kts | 30° |
| 2026-05-04 18:52 | 54.84121 | 12.18955 | 12832 ft | 390 kts | 30° |
| 2026-05-04 18:52 | 54.86377 | 12.21577 | 12049 ft | 390 kts | 30° |
| 2026-05-04 18:52 | 54.88628 | 12.24198 | 11302 ft | 389 kts | 31° |
| 2026-05-04 18:52 | 54.90873 | 12.26817 | 10574 ft | 388 kts | 31° |
| 2026-05-04 18:53 | 54.93105 | 12.29424 | 9843 ft | 386 kts | 31° |
| 2026-05-04 18:53 | 54.95317 | 12.32013 | 9229 ft | 379 kts | 31° |
| 2026-05-04 18:53 | 54.97459 | 12.34528 | 8970 ft | 362 kts | 31° |
| 2026-05-04 18:53 | 54.99483 | 12.36909 | 8951 ft | 340 kts | 31° |
| 2026-05-04 18:54 | 55.01235 | 12.38973 | 8948 ft | 321 kts | 31° |
| 2026-05-04 18:54 | 55.03062 | 12.41126 | 8946 ft | 302 kts | 30° |
| 2026-05-04 18:54 | 55.04787 | 12.43154 | 8954 ft | 297 kts | 30° |
| 2026-05-04 18:54 | 55.06506 | 12.45172 | 8955 ft | 297 kts | 30° |
| 2026-05-04 18:55 | 55.08220 | 12.47189 | 8954 ft | 297 kts | 30° |
| 2026-05-04 18:55 | 55.11649 | 12.51234 | 8954 ft | 297 kts | 30° |
| 2026-05-04 18:55 | 55.13362 | 12.53260 | 8953 ft | 298 kts | 30° |
| 2026-05-04 18:56 | 55.15075 | 12.55288 | 8962 ft | 297 kts | 30° |
| 2026-05-04 18:56 | 55.16774 | 12.57343 | 8949 ft | 298 kts | 33° |
| 2026-05-04 18:56 | 55.18154 | 12.60071 | 8956 ft | 303 kts | 57° |
| 2026-05-04 18:56 | 55.19096 | 12.63375 | 8952 ft | 304 kts | 64° |
| 2026-05-04 18:57 | 55.19947 | 12.66777 | 8952 ft | 305 kts | 65° |
| 2026-05-04 18:57 | 55.20775 | 12.70143 | 8952 ft | 305 kts | 65° |
| 2026-05-04 18:57 | 55.21615 | 12.73557 | 8952 ft | 305 kts | 65° |
| 2026-05-04 18:57 | 55.22452 | 12.76967 | 8950 ft | 305 kts | 65° |
| 2026-05-04 18:58 | 55.23289 | 12.80387 | 8952 ft | 305 kts | 65° |
| 2026-05-04 18:58 | 55.24126 | 12.83804 | 8953 ft | 305 kts | 65° |
| 2026-05-04 18:58 | 55.24964 | 12.87225 | 8952 ft | 305 kts | 65° |
| 2026-05-04 18:58 | 55.25801 | 12.90646 | 8949 ft | 305 kts | 65° |
| 2026-05-04 18:59 | 55.26637 | 12.94068 | 8950 ft | 305 kts | 65° |
| 2026-05-04 18:59 | 55.27473 | 12.97489 | 8949 ft | 305 kts | 65° |
| 2026-05-04 18:59 | 55.28396 | 13.00830 | 8945 ft | 304 kts | 54° |
| 2026-05-04 18:59 | 55.29871 | 13.03379 | 8948 ft | 296 kts | 28° |
| 2026-05-04 19:00 | 55.31759 | 13.04563 | 8946 ft | 285 kts | 1° |
| 2026-05-04 19:00 | 55.33690 | 13.04247 | 8954 ft | 277 kts | 340° |
| 2026-05-04 19:00 | 55.35493 | 13.03123 | 8948 ft | 274 kts | 330° |
| 2026-05-04 19:00 | 55.37067 | 13.01309 | 8951 ft | 269 kts | 314° |
| 2026-05-04 19:01 | 55.38303 | 12.98878 | 8946 ft | 265 kts | 300° |
| 2026-05-04 19:01 | 55.39235 | 12.96090 | 8946 ft | 265 kts | 298° |
| 2026-05-04 19:01 | 55.40218 | 12.93374 | 8851 ft | 259 kts | 302° |
| 2026-05-04 19:01 | 55.41303 | 12.90920 | 8671 ft | 250 kts | 308° |
| 2026-05-04 19:02 | 55.42459 | 12.88691 | 8381 ft | 245 kts | 308° |
| 2026-05-04 19:02 | 55.43509 | 12.86360 | 8021 ft | 241 kts | 303° |
| 2026-05-04 19:02 | 55.44498 | 12.83980 | 7624 ft | 241 kts | 306° |
| 2026-05-04 19:02 | 55.45679 | 12.81878 | 7258 ft | 243 kts | 318° |
| 2026-05-04 19:03 | 55.47155 | 12.80372 | 6818 ft | 250 kts | 335° |
| 2026-05-04 19:03 | 55.48884 | 12.79896 | 6265 ft | 264 kts | 2° |
| 2026-05-04 19:03 | 55.50730 | 12.80635 | 5673 ft | 273 kts | 13° |
| 2026-05-04 19:03 | 55.52534 | 12.81658 | 5095 ft | 278 kts | 15° |
| 2026-05-04 19:04 | 55.54384 | 12.82743 | 4511 ft | 282 kts | 15° |
| 2026-05-04 19:04 | 55.56237 | 12.83833 | 4101 ft | 278 kts | 16° |
| 2026-05-04 19:04 | 55.57994 | 12.85045 | 4012 ft | 263 kts | 20° |
| 2026-05-04 19:04 | 55.59623 | 12.86272 | 4013 ft | 248 kts | 20° |
| 2026-05-04 19:05 | 55.61183 | 12.87437 | 4009 ft | 238 kts | 19° |
| 2026-05-04 19:05 | 55.62668 | 12.88709 | 4025 ft | 238 kts | 29° |
| 2026-05-04 19:05 | 55.63986 | 12.90491 | 4015 ft | 239 kts | 37° |
| 2026-05-04 19:05 | 55.65234 | 12.92433 | 4015 ft | 239 kts | 38° |
| 2026-05-04 19:06 | 55.66473 | 12.94391 | 4015 ft | 239 kts | 38° |
| 2026-05-04 19:06 | 55.67715 | 12.96349 | 4015 ft | 239 kts | 38° |
| 2026-05-04 19:06 | 55.68955 | 12.98296 | 4010 ft | 239 kts | 38° |
| 2026-05-04 19:06 | 55.70317 | 12.99924 | 4007 ft | 234 kts | 18° |
| 2026-05-04 19:07 | 55.71879 | 13.00416 | 3916 ft | 225 kts | 359° |
| 2026-05-04 19:07 | 55.73417 | 13.01000 | 3541 ft | 230 kts | 19° |
| 2026-05-04 19:07 | 55.74862 | 13.02246 | 3208 ft | 231 kts | 24° |
| 2026-05-04 19:07 | 55.76272 | 13.03585 | 3017 ft | 229 kts | 25° |
| 2026-05-04 19:08 | 55.77753 | 13.04547 | 3003 ft | 226 kts | 2° |
| 2026-05-04 19:08 | 55.79257 | 13.04092 | 2907 ft | 218 kts | 332° |
| 2026-05-04 19:08 | 55.80373 | 13.02329 | 2455 ft | 219 kts | 301° |
| 2026-05-04 19:08 | 55.80769 | 12.99734 | 2092 ft | 219 kts | 272° |
| 2026-05-04 19:09 | 55.80683 | 12.97106 | 1996 ft | 206 kts | 266° |
| 2026-05-04 19:09 | 55.80530 | 12.94638 | 2319 ft | 200 kts | 265° |
| 2026-05-04 19:09 | 55.80359 | 12.92182 | 2814 ft | 198 kts | 265° |
| 2026-05-04 19:09 | 55.80159 | 12.89774 | 2986 ft | 198 kts | 259° |
| 2026-05-04 19:10 | 55.79428 | 12.87705 | 3005 ft | 204 kts | 223° |
| 2026-05-04 19:10 | 55.78117 | 12.86707 | 3018 ft | 210 kts | 192° |
| 2026-05-04 19:10 | 55.76651 | 12.86457 | 3016 ft | 213 kts | 186° |
| 2026-05-04 19:10 | 55.75219 | 12.86030 | 3004 ft | 203 kts | 204° |
| 2026-05-04 19:11 | 55.74089 | 12.84784 | 3008 ft | 186 kts | 227° |
| 2026-05-04 19:11 | 55.73159 | 12.83210 | 2880 ft | 184 kts | 226° |
| 2026-05-04 19:11 | 55.72203 | 12.81740 | 2630 ft | 184 kts | 224° |
| 2026-05-04 19:11 | 55.71222 | 12.80239 | 2375 ft | 184 kts | 225° |
| 2026-05-04 19:12 | 55.70264 | 12.78743 | 2111 ft | 183 kts | 225° |
| 2026-05-04 19:12 | 55.68362 | 12.75786 | 1592 ft | 181 kts | 225° |
| 2026-05-04 19:12 | 55.67422 | 12.74329 | 1386 ft | 178 kts | 225° |
| 2026-05-04 19:13 | 55.66519 | 12.72930 | 1118 ft | 165 kts | 225° |
| 2026-05-04 19:13 | 55.65691 | 12.71644 | 865 ft | 152 kts | 224° |
| 2026-05-04 19:13 | 55.64942 | 12.70481 | 683 ft | 140 kts | 223° |
| 2026-05-04 19:13 | 55.64235 | 12.69387 | 487 ft | 131 kts | 224° |
| 2026-05-04 19:14 | 55.63556 | 12.68332 | 313 ft | 130 kts | 224° |
| 2026-05-04 19:14 | 55.62875 | 12.67289 | 145 ft | 130 kts | 224° |
| 2026-05-04 19:14 | 55.62194 | 12.66234 | 28 ft | 127 kts | 224° |
| 2026-05-04 19:14 | 55.61617 | 12.65330 | 26 ft | 94 kts | 221° |
| 2026-05-04 19:15 | 55.61332 | 12.64861 | 28 ft | 38 kts | 230° |
| 2026-05-04 19:15 | 55.61227 | 12.64485 | 28 ft | 28 kts | 251° |
| 2026-05-04 19:15 | 55.61187 | 12.64243 | 26 ft | 16 kts | 268° |
| 2026-05-04 19:15 | 55.61202 | 12.64154 | 24 ft | 0 kts | 304° |
| 2026-05-04 19:16 | 55.61235 | 12.64108 | 25 ft | 14 kts | 339° |
| 2026-05-04 19:16 | 55.61414 | 12.64261 | 25 ft | 51 kts | 33° |
| 2026-05-04 19:17 | 55.61681 | 12.64567 | 31 ft | 41 kts | 33° |
| 2026-05-04 19:17 | 55.61915 | 12.64839 | 28 ft | 40 kts | 33° |
| 2026-05-04 19:17 | 55.62101 | 12.65052 | 29 ft | 10 kts | 33° |
| 2026-05-04 19:17 | 55.62116 | 12.65070 | 30 ft | 0 kts | 33° |
| 2026-05-04 19:18 | 55.62117 | 12.65071 | 30 ft | 2 kts | 32° |
| 2026-05-04 19:19 | 55.62142 | 12.65085 | 30 ft | 12 kts | 9° |
| 2026-05-04 19:19 | 55.62216 | 12.64992 | 30 ft | 15 kts | 305° |
| 2026-05-04 19:19 | 55.62274 | 12.64838 | 31 ft | 16 kts | 303° |
| 2026-05-04 19:19 | 55.62342 | 12.64660 | 27 ft | 19 kts | 303° |
| 2026-05-04 19:20 | 55.62418 | 12.64453 | 30 ft | 22 kts | 303° |
| 2026-05-04 19:20 | 55.62469 | 12.64329 | 30 ft | 0 kts | 308° |
| 2026-05-04 19:20 | 55.62469 | 12.64328 | 30 ft | 2 kts | 308° |
| 2026-05-04 19:20 | 55.62501 | 12.64255 | 27 ft | 1 kts | 307° |
| 2026-05-04 19:21 | 55.62561 | 12.64216 | 29 ft | 8 kts | 30° |
| 2026-05-04 19:21 | 55.62595 | 12.64293 | 29 ft | 10 kts | 63° |
| 2026-05-04 19:21 | 55.62626 | 12.64414 | 28 ft | 0 kts | 67° |